Time;durP1;ratioP1;P1;durP2;ratioP2;P2;SDS_P1;SDS_P2;PMS_P1;PMS_P2;Temp;Humidity;BMP_temperature;BMP_pressure;BME280_temperature;BME280_humidity;BME280_pressure;Samples;Min_cycle;Max_cycle;Signal;HPM_P1;HPM_P2
2022/07/10 06:56:34;;;;;;;1.83;1.58;;;;;18.70;96851.00;;;;8335712;28;20282;-63
2022/07/10 07:00:39;;;;;;;2.20;1.50;;;;;18.70;96840.00;;;;8326543;28;20236;-62
2022/07/10 07:04:44;;;;;;;3.47;1.60;;;;;19.40;96844.00;;;;8335823;28;20264;-62
2022/07/10 07:08:47;;;;;;;4.82;1.90;;;;;19.90;96849.00;;;;8336992;28;20285;-63
2022/07/10 07:12:50;;;;;;;4.20;1.98;;;;;19.90;96858.00;;;;8336902;28;20602;-62
2022/07/10 07:17:01;;;;;;;3.97;2.28;;;;;20.10;96857.00;;;;8340583;28;20234;-63
2022/07/10 07:25:26;;;;;;;2.08;1.60;;;;;20.00;96850.00;;;;8343539;28;20192;-64
2022/07/10 07:29:29;;;;;;;2.15;1.80;;;;;20.30;96853.00;;;;8342020;28;20212;-63
2022/07/10 07:33:34;;;;;;;4.78;1.50;;;;;20.90;96847.00;;;;8340621;28;21511;-64
2022/07/10 07:37:39;;;;;;;3.05;1.50;;;;;21.60;96853.00;;;;8338060;28;20316;-62
2022/07/10 07:41:42;;;;;;;2.45;1.35;;;;;22.40;96859.00;;;;8336321;28;20299;-63
2022/07/10 07:45:48;;;;;;;1.60;1.50;;;;;22.30;96864.00;;;;8340879;28;20212;-63
2022/07/10 07:49:53;;;;;;;4.45;1.30;;;;;22.80;96873.00;;;;8321675;28;20201;-63
2022/07/10 07:53:56;;;;;;;3.78;1.77;;;;;22.30;96880.00;;;;8329850;28;20576;-64
2022/07/10 07:57:59;;;;;;;1.95;1.30;;;;;22.20;96871.00;;;;8337303;28;20233;-63
2022/07/10 08:02:02;;;;;;;1.60;1.50;;;;;22.40;96873.00;;;;8336060;28;20532;-64
2022/07/10 08:06:08;;;;;;;1.98;1.55;;;;;22.40;96874.00;;;;8333272;28;20642;-64
2022/07/10 08:10:13;;;;;;;2.38;1.38;;;;;21.90;96869.00;;;;8328521;28;20222;-63
2022/07/10 08:14:16;;;;;;;6.10;1.63;;;;;21.40;96871.00;;;;8339762;28;20200;-63
2022/07/10 08:18:20;;;;;;;4.00;1.65;;;;;20.90;96879.00;;;;8337058;28;20236;-62
2022/07/10 08:22:24;;;;;;;3.55;1.48;;;;;22.00;96868.00;;;;8328135;28;20757;-63
2022/07/10 08:26:28;;;;;;;2.45;1.30;;;;;22.80;96871.00;;;;8324390;28;20200;-63
2022/07/10 08:30:31;;;;;;;2.95;1.30;;;;;22.30;96877.00;;;;8337619;28;20974;-63
2022/07/10 08:34:37;;;;;;;4.07;1.63;;;;;22.40;96864.00;;;;8334362;28;20628;-64
2022/07/10 08:38:42;;;;;;;3.65;1.60;;;;;23.40;96857.00;;;;8338833;28;20231;-64
2022/07/10 08:42:45;;;;;;;3.97;1.58;;;;;23.60;96865.00;;;;8335053;28;20305;-64
2022/07/10 08:46:49;;;;;;;3.70;1.48;;;;;24.40;96853.00;;;;8340207;28;20231;-63
2022/07/10 08:50:54;;;;;;;4.93;1.58;;;;;23.80;96859.00;;;;8334200;28;20197;-64
2022/07/10 08:55:00;;;;;;;5.00;1.42;;;;;23.60;96867.00;;;;8332494;28;20289;-64
2022/07/10 08:59:04;;;;;;;2.20;1.17;;;;;23.50;96861.00;;;;8333909;28;20236;-64
2022/07/10 09:03:10;;;;;;;1.38;1.27;;;;;22.90;96858.00;;;;8338844;28;20367;-63
2022/07/10 09:07:13;;;;;;;3.33;1.55;;;;;22.10;96858.00;;;;8337142;28;20760;-63
2022/07/10 09:11:19;;;;;;;3.35;1.60;;;;;22.40;96855.00;;;;8326404;28;20208;-64
2022/07/10 09:15:24;;;;;;;2.83;1.50;;;;;23.00;96852.00;;;;8336241;28;20236;-64
2022/07/10 09:19:28;;;;;;;4.75;1.60;;;;;22.90;96865.00;;;;8334315;28;20239;-64
2022/07/10 09:23:33;;;;;;;1.50;1.20;;;;;22.00;96863.00;;;;8334804;28;20197;-64
2022/07/10 09:27:52;;;;;;;4.47;1.30;;;;;22.10;96864.00;;;;8335010;28;20230;-64
2022/07/10 09:31:57;;;;;;;5.32;1.50;;;;;21.50;96865.00;;;;8336155;28;20284;-64
2022/07/10 09:36:06;;;;;;;1.30;1.20;;;;;21.00;96864.00;;;;8337573;28;20204;-64
2022/07/10 09:40:10;;;;;;;5.50;1.48;;;;;20.70;96875.00;;;;8333148;28;20757;-64
2022/07/10 09:44:16;;;;;;;4.82;1.50;;;;;20.30;96881.00;;;;8331877;28;20544;-64
2022/07/10 09:48:26;;;;;;;2.33;1.38;;;;;20.30;96885.00;;;;8337835;28;20201;-64
2022/07/10 09:52:30;;;;;;;2.67;1.77;;;;;20.50;96879.00;;;;8336435;28;21112;-64
2022/07/10 09:56:44;;;;;;;4.93;1.92;;;;;21.00;96883.00;;;;8335149;28;20574;-64
2022/07/10 10:00:51;;;;;;;4.82;1.50;;;;;21.50;96889.00;;;;8337577;28;20244;-64
2022/07/10 10:04:54;;;;;;;2.33;1.58;;;;;21.90;96871.00;;;;8333278;28;20264;-64
2022/07/10 10:09:05;;;;;;;2.00;1.30;;;;;22.50;96872.00;;;;8332523;28;20197;-64
2022/07/10 10:13:11;;;;;;;1.67;1.50;;;;;22.30;96882.00;;;;8331993;28;20266;-64
2022/07/10 10:17:18;;;;;;;2.10;1.52;;;;;21.60;96870.00;;;;8323579;28;20237;-64
2022/07/10 10:21:21;;;;;;;2.30;1.30;;;;;21.10;96884.00;;;;8336821;28;20216;-65
2022/07/10 10:25:27;;;;;;;3.75;1.30;;;;;21.00;96883.00;;;;8333563;28;20363;-65
2022/07/10 10:29:31;;;;;;;1.55;1.30;;;;;21.70;96890.00;;;;8335702;28;20289;-65
2022/07/10 10:34:05;;;;;;;2.90;1.45;;;;;22.40;96902.00;;;;8338085;28;20709;-65
2022/07/10 10:38:08;;;;;;;3.20;1.33;;;;;22.60;96892.00;;;;8334481;28;20252;-65
2022/07/10 10:42:38;;;;;;;2.00;1.52;;;;;23.20;96883.00;;;;8335569;28;20208;-65
2022/07/10 10:47:00;;;;;;;2.38;1.45;;;;;22.40;96888.00;;;;8337669;28;20288;-65
2022/07/10 10:51:05;;;;;;;1.23;1.10;;;;;23.20;96872.00;;;;8343766;28;20200;-64
2022/07/10 10:55:11;;;;;;;1.73;1.02;;;;;24.90;96890.00;;;;8338228;28;22100;-65
2022/07/10 10:59:45;;;;;;;2.25;1.10;;;;;25.20;96881.00;;;;8343170;28;20325;-64
2022/07/10 11:04:17;;;;;;;3.83;1.10;;;;;24.20;96891.00;;;;8344124;28;20232;-64
2022/07/10 11:08:46;;;;;;;1.70;1.20;;;;;23.30;96888.00;;;;8329162;28;20196;-64
2022/07/10 11:13:00;;;;;;;4.15;1.35;;;;;23.40;96877.00;;;;8317506;28;20270;-64
2022/07/10 11:17:04;;;;;;;2.63;1.10;;;;;23.30;96883.00;;;;8329795;28;20229;-63
2022/07/10 11:21:23;;;;;;;2.05;1.15;;;;;24.30;96883.00;;;;8333676;28;20212;-63
2022/07/10 11:25:44;;;;;;;1.35;1.15;;;;;25.20;96879.00;;;;8341930;28;20281;-65
2022/07/10 11:29:48;;;;;;;1.05;0.90;;;;;24.40;96876.00;;;;8340873;28;20212;-66
2022/07/10 11:33:57;;;;;;;1.05;0.90;;;;;23.80;96880.00;;;;8334406;28;20244;-65
2022/07/10 11:38:00;;;;;;;1.38;0.90;;;;;23.60;96887.00;;;;8335099;28;20235;-65
2022/07/10 11:42:05;;;;;;;2.97;1.00;;;;;23.70;96889.00;;;;8346530;28;20282;-62
2022/07/10 11:46:11;;;;;;;2.15;0.95;;;;;23.90;96891.00;;;;8342821;28;20212;-63
2022/07/10 11:50:14;;;;;;;1.88;0.98;;;;;23.20;96898.00;;;;8345548;28;20607;-64
2022/07/10 11:54:19;;;;;;;0.90;0.90;;;;;23.50;96878.00;;;;8336088;28;20207;-64
2022/07/10 11:58:23;;;;;;;1.30;0.93;;;;;25.60;96890.00;;;;8325146;28;20770;-64
2022/07/10 12:02:27;;;;;;;4.97;1.20;;;;;26.30;96875.00;;;;8327111;28;20319;-64
2022/07/10 12:06:32;;;;;;;3.78;0.77;;;;;26.00;96873.00;;;;8330349;28;20204;-63
2022/07/10 12:10:35;;;;;;;1.65;0.70;;;;;25.90;96882.00;;;;8341091;28;20287;-64
2022/07/10 12:14:40;;;;;;;1.65;0.80;;;;;26.20;96892.00;;;;8336416;28;20286;-64
2022/07/10 12:18:44;;;;;;;1.63;0.75;;;;;25.80;96903.00;;;;8338293;28;20221;-64
2022/07/10 12:22:48;;;;;;;2.00;0.90;;;;;24.50;96909.00;;;;8340556;28;20202;-64
2022/07/10 12:26:52;;;;;;;0.82;0.82;;;;;23.80;96893.00;;;;8336743;28;20596;-64
2022/07/10 12:30:56;;;;;;;2.40;0.90;;;;;23.50;96895.00;;;;8328845;28;20202;-65
2022/07/10 12:35:00;;;;;;;0.73;0.73;;;;;23.30;96885.00;;;;8342959;28;20236;-64
2022/07/10 12:39:03;;;;;;;2.70;1.00;;;;;23.20;96910.00;;;;8342435;28;20229;-65
2022/07/10 12:43:07;;;;;;;1.52;1.10;;;;;23.00;96904.00;;;;8329680;28;20671;-64
2022/07/10 12:47:13;;;;;;;0.80;0.80;;;;;22.80;96904.00;;;;8333169;28;20204;-65
2022/07/10 12:51:26;;;;;;;1.23;1.10;;;;;22.50;96905.00;;;;8336426;28;20205;-65
2022/07/10 12:55:37;;;;;;;0.80;0.80;;;;;22.70;96923.00;;;;8328880;28;20254;-64
2022/07/10 12:59:41;;;;;;;1.00;1.00;;;;;22.80;96897.00;;;;8342582;28;20216;-64
2022/07/10 13:03:46;;;;;;;1.48;1.33;;;;;23.10;96915.00;;;;8334056;28;20256;-64
2022/07/10 13:07:50;;;;;;;1.38;0.95;;;;;22.90;96918.00;;;;8341131;28;20202;-64
2022/07/10 13:11:54;;;;;;;3.03;1.10;;;;;22.50;96907.00;;;;8319771;28;20200;-65
2022/07/10 13:15:57;;;;;;;3.63;1.13;;;;;22.10;96911.00;;;;8331691;28;20203;-64
2022/07/10 13:20:02;;;;;;;0.90;0.90;;;;;22.30;96915.00;;;;8339294;28;20232;-65
2022/07/10 13:24:06;;;;;;;1.02;1.00;;;;;22.60;96907.00;;;;8328971;28;20208;-65
2022/07/10 13:28:11;;;;;;;1.15;1.05;;;;;22.60;96910.00;;;;8333727;28;20192;-63
2022/07/10 13:32:14;;;;;;;1.00;1.00;;;;;23.00;96908.00;;;;8339762;28;20192;-64
2022/07/10 13:36:19;;;;;;;1.27;0.95;;;;;23.40;96901.00;;;;8342189;28;20284;-64
2022/07/10 13:40:26;;;;;;;3.15;1.27;;;;;23.90;96870.00;;;;8347869;28;20232;-64
2022/07/10 13:44:34;;;;;;;1.42;1.10;;;;;23.60;96895.00;;;;8329861;28;20538;-63
2022/07/10 13:48:37;;;;;;;0.98;0.98;;;;;23.20;96896.00;;;;8338007;28;20209;-63
2022/07/10 13:52:42;;;;;;;1.10;1.00;;;;;22.90;96895.00;;;;8340799;28;20200;-64
2022/07/10 13:56:46;;;;;;;1.02;1.00;;;;;23.20;96889.00;;;;8331606;28;20239;-65
2022/07/10 14:00:49;;;;;;;3.17;1.05;;;;;23.00;96916.00;;;;8319662;28;20308;-64
2022/07/10 14:04:53;;;;;;;1.58;0.90;;;;;22.10;96915.00;;;;8334290;28;20566;-64
2022/07/10 14:08:58;;;;;;;1.55;1.20;;;;;21.90;96915.00;;;;8329644;28;20562;-63
2022/07/10 14:13:02;;;;;;;1.45;1.00;;;;;21.60;96920.00;;;;8335447;28;20209;-63
2022/07/10 14:17:13;;;;;;;1.15;0.95;;;;;21.50;96928.00;;;;8335866;28;20223;-64
2022/07/10 14:21:16;;;;;;;2.25;1.10;;;;;21.60;96925.00;;;;8293601;28;20236;-63
2022/07/10 14:25:26;;;;;;;2.15;1.00;;;;;21.40;96921.00;;;;8333255;28;20318;-63
2022/07/10 14:29:29;;;;;;;1.38;0.90;;;;;21.20;96927.00;;;;8324923;28;20220;-64
2022/07/10 14:33:33;;;;;;;1.27;1.17;;;;;21.10;96920.00;;;;8330128;28;20327;-64
2022/07/10 14:37:37;;;;;;;1.58;1.00;;;;;22.10;96917.00;;;;8317156;28;20218;-63
2022/07/10 14:41:41;;;;;;;1.23;1.10;;;;;23.10;96912.00;;;;8347177;28;20232;-63
2022/07/10 14:45:44;;;;;;;1.10;0.98;;;;;24.20;96916.00;;;;8347236;28;20504;-64
2022/07/10 14:49:52;;;;;;;1.15;0.90;;;;;24.20;96919.00;;;;8341650;28;20995;-65
2022/07/10 14:53:56;;;;;;;1.00;1.00;;;;;23.80;96921.00;;;;8347279;28;20263;-65
2022/07/10 14:58:00;;;;;;;0.88;0.85;;;;;23.80;96904.00;;;;8349106;28;20225;-65
2022/07/10 15:02:04;;;;;;;0.80;0.80;;;;;24.90;96919.00;;;;8349847;28;20238;-65
2022/07/10 15:06:08;;;;;;;0.80;0.80;;;;;25.20;96925.00;;;;8351195;28;20223;-64
2022/07/10 15:10:12;;;;;;;0.93;0.82;;;;;25.40;96920.00;;;;8348832;28;20334;-65
2022/07/10 15:14:17;;;;;;;2.90;0.95;;;;;25.00;96918.00;;;;8319957;28;20228;-65
2022/07/10 15:18:20;;;;;;;1.20;1.13;;;;;24.60;96915.00;;;;8312815;28;20235;-64
2022/07/10 15:22:24;;;;;;;3.00;0.98;;;;;24.10;96907.00;;;;8331532;28;20280;-64
2022/07/10 15:26:27;;;;;;;1.67;1.13;;;;;23.90;96904.00;;;;8337224;28;20319;-64
2022/07/10 15:30:32;;;;;;;2.13;1.00;;;;;24.00;96908.00;;;;8353740;28;20530;-65
2022/07/10 15:34:35;;;;;;;0.88;0.85;;;;;23.50;96899.00;;;;8375011;28;20227;-64
2022/07/10 15:38:38;;;;;;;2.60;0.80;;;;;23.10;96903.00;;;;8378225;28;20219;-64
2022/07/10 15:42:42;;;;;;;1.75;0.88;;;;;22.90;96906.00;;;;8368110;28;20692;-64
2022/07/10 15:46:46;;;;;;;1.08;1.00;;;;;22.30;96903.00;;;;8375547;28;20584;-65
2022/07/10 15:50:49;;;;;;;3.65;1.15;;;;;22.00;96897.00;;;;8362734;28;20224;-64
2022/07/10 15:54:53;;;;;;;1.92;1.10;;;;;21.90;96891.00;;;;8375202;28;20310;-65
2022/07/10 15:58:56;;;;;;;1.83;0.95;;;;;21.60;96904.00;;;;8376065;28;20323;-65
2022/07/10 16:03:01;;;;;;;1.27;1.02;;;;;21.40;96891.00;;;;8378540;28;20247;-64
2022/07/10 16:07:04;;;;;;;2.50;1.00;;;;;21.70;96903.00;;;;8369223;28;20243;-65
2022/07/10 16:11:07;;;;;;;1.80;1.10;;;;;21.80;96902.00;;;;8378333;28;20228;-65
2022/07/10 16:15:11;;;;;;;5.25;1.15;;;;;21.70;96904.00;;;;8371950;28;20307;-64
2022/07/10 16:19:20;;;;;;;4.18;1.00;;;;;21.80;96897.00;;;;8383589;28;20253;-65
2022/07/10 16:23:23;;;;;;;0.90;0.90;;;;;21.90;96899.00;;;;8370736;28;20303;-63
2022/07/10 16:27:26;;;;;;;5.55;1.10;;;;;21.60;96895.00;;;;8373195;28;20310;-63
2022/07/10 16:31:30;;;;;;;1.13;1.02;;;;;21.60;96903.00;;;;8368257;28;20315;-62
2022/07/10 16:35:34;;;;;;;1.52;1.27;;;;;21.40;96902.00;;;;8353131;28;20228;-63
2022/07/10 16:39:37;;;;;;;0.88;0.88;;;;;21.00;96917.00;;;;8366166;28;20239;-63
2022/07/10 16:43:41;;;;;;;2.75;1.25;;;;;20.70;96912.00;;;;8369622;28;20625;-62
2022/07/10 16:47:45;;;;;;;1.23;1.08;;;;;20.60;96907.00;;;;8372603;28;20224;-63
2022/07/10 16:51:50;;;;;;;1.23;1.00;;;;;21.20;96894.00;;;;8371856;28;20836;-62
2022/07/10 16:55:54;;;;;;;1.25;1.05;;;;;21.50;96901.00;;;;8372448;28;20239;-63
2022/07/10 16:59:57;;;;;;;2.28;0.85;;;;;21.60;96904.00;;;;8367970;28;20235;-62
2022/07/10 17:04:00;;;;;;;1.58;1.15;;;;;21.40;96901.00;;;;8378077;28;20263;-63
2022/07/10 17:08:09;;;;;;;4.18;1.02;;;;;21.80;96905.00;;;;8362972;28;20232;-62
2022/07/10 17:12:12;;;;;;;3.03;0.95;;;;;22.00;96904.00;;;;8362529;28;20235;-62
2022/07/10 17:16:15;;;;;;;1.48;1.30;;;;;22.10;96906.00;;;;8361762;28;20840;-63
2022/07/10 17:20:18;;;;;;;2.95;1.00;;;;;21.60;96903.00;;;;8368870;28;20338;-62
2022/07/10 17:24:23;;;;;;;3.35;1.10;;;;;21.40;96896.00;;;;8370532;28;20225;-63
2022/07/10 17:28:26;;;;;;;1.98;1.25;;;;;21.40;96896.00;;;;8374229;28;20228;-63
2022/07/10 17:32:30;;;;;;;1.10;1.02;;;;;21.90;96901.00;;;;8369488;28;20230;-62
2022/07/10 17:36:33;;;;;;;2.20;1.30;;;;;22.00;96902.00;;;;8367137;28;20656;-62
2022/07/10 17:40:38;;;;;;;1.88;1.20;;;;;22.90;96896.00;;;;8373523;28;20307;-63
2022/07/10 17:44:41;;;;;;;1.25;1.17;;;;;24.10;96903.00;;;;8378805;28;20855;-62
2022/07/10 17:48:44;;;;;;;2.80;1.30;;;;;24.80;96890.00;;;;8366468;28;20238;-62
2022/07/10 17:52:48;;;;;;;1.23;1.10;;;;;25.00;96897.00;;;;8375527;28;20223;-62
2022/07/10 17:56:52;;;;;;;1.15;1.05;;;;;25.00;96896.00;;;;8370477;28;20311;-63
2022/07/10 18:00:56;;;;;;;3.90;1.10;;;;;24.60;96898.00;;;;8374236;28;20716;-63
2022/07/10 18:04:59;;;;;;;1.70;1.00;;;;;23.70;96903.00;;;;8373405;28;20628;-62
2022/07/10 18:09:03;;;;;;;1.55;0.90;;;;;22.70;96908.00;;;;8372990;28;20220;-63
2022/07/10 18:13:08;;;;;;;2.60;1.17;;;;;21.90;96901.00;;;;8376389;28;20231;-64
2022/07/10 18:17:11;;;;;;;1.95;1.00;;;;;21.30;96897.00;;;;8371637;28;20232;-63
2022/07/10 18:21:15;;;;;;;1.23;1.08;;;;;20.80;96895.00;;;;8368114;28;20263;-63
2022/07/10 18:25:19;;;;;;;1.52;1.10;;;;;20.40;96892.00;;;;8374179;28;20302;-64
2022/07/10 18:29:24;;;;;;;6.43;1.10;;;;;20.20;96900.00;;;;8365932;28;20218;-63
2022/07/10 18:38:02;;;;;;;1.50;1.10;;;;;19.60;96903.00;;;;8363723;28;20215;-65
2022/07/10 18:42:06;;;;;;;3.28;1.48;;;;;19.30;96897.00;;;;8359122;28;20318;-65
2022/07/10 18:46:11;;;;;;;3.38;1.10;;;;;19.10;96898.00;;;;8363224;28;20691;-65
2022/07/10 18:50:14;;;;;;;2.97;1.30;;;;;18.90;96904.00;;;;8371188;28;20230;-65
2022/07/10 18:54:17;;;;;;;4.30;1.50;;;;;18.70;96901.00;;;;8372220;28;20236;-65
2022/07/10 18:58:21;;;;;;;3.13;1.40;;;;;18.30;96905.00;;;;8371873;28;20241;-64
2022/07/10 19:02:26;;;;;;;2.55;1.35;;;;;17.80;96910.00;;;;8368537;28;20649;-65
2022/07/10 19:06:31;;;;;;;1.40;1.17;;;;;17.50;96905.00;;;;8361230;28;20227;-64
2022/07/10 19:10:34;;;;;;;3.47;1.40;;;;;17.20;96916.00;;;;8372668;28;20216;-64
2022/07/10 19:14:37;;;;;;;2.20;1.20;;;;;16.80;96909.00;;;;8380354;28;20303;-64
2022/07/10 19:18:45;;;;;;;3.22;1.33;;;;;16.50;96910.00;;;;8377768;28;20298;-63
2022/07/10 19:22:49;;;;;;;4.30;1.38;;;;;16.20;96908.00;;;;8364292;28;20247;-64
2022/07/10 19:26:52;;;;;;;1.48;1.38;;;;;15.80;96918.00;;;;8363024;28;20612;-64
2022/07/10 19:30:55;;;;;;;1.70;1.60;;;;;15.50;96917.00;;;;8362386;28;20231;-64
2022/07/10 19:35:00;;;;;;;3.05;1.38;;;;;15.30;96927.00;;;;8366637;28;20314;-64
2022/07/10 19:39:03;;;;;;;2.20;1.50;;;;;15.10;96924.00;;;;8360725;28;20242;-64
2022/07/10 19:43:07;;;;;;;5.90;1.63;;;;;14.90;96929.00;;;;8376900;28;20596;-63
2022/07/10 19:47:10;;;;;;;3.13;1.38;;;;;14.70;96939.00;;;;8382365;28;20249;-64
2022/07/10 19:51:15;;;;;;;5.13;1.60;;;;;14.50;96941.00;;;;8381972;28;20302;-63
2022/07/10 19:55:18;;;;;;;3.67;1.50;;;;;14.40;96937.00;;;;8372184;28;20310;-64
2022/07/10 19:59:21;;;;;;;3.28;1.42;;;;;14.20;96939.00;;;;8367310;28;20234;-63
2022/07/10 20:03:25;;;;;;;3.60;1.40;;;;;13.90;96942.00;;;;8376430;28;20234;-65
2022/07/10 20:07:29;;;;;;;3.42;1.50;;;;;13.80;96943.00;;;;8375870;28;20330;-63
2022/07/10 20:11:33;;;;;;;2.38;1.58;;;;;13.80;96943.00;;;;8374001;28;20319;-62
2022/07/10 20:15:36;;;;;;;6.13;1.50;;;;;13.80;96950.00;;;;8366181;28;20330;-64
2022/07/10 20:20:00;;;;;;;2.20;2.03;;;;;13.70;96944.00;;;;8374257;28;20607;-65
2022/07/10 20:24:05;;;;;;;2.50;1.42;;;;;13.50;96942.00;;;;8363988;28;20313;-64
2022/07/10 20:28:09;;;;;;;1.95;1.60;;;;;13.40;96947.00;;;;8373885;28;20301;-63
2022/07/10 20:32:13;;;;;;;1.80;1.50;;;;;13.20;96941.00;;;;8374838;28;20252;-64
2022/07/10 20:40:38;;;;;;;1.83;1.65;;;;;13.20;96939.00;;;;8381294;28;20227;-64
2022/07/10 20:44:42;;;;;;;2.15;1.50;;;;;13.30;96948.00;;;;8363083;28;20327;-64
2022/07/10 20:48:45;;;;;;;2.67;1.50;;;;;13.60;96937.00;;;;8370067;28;20305;-64
2022/07/10 20:52:48;;;;;;;1.60;1.50;;;;;13.90;96936.00;;;;8374513;28;20313;-64
2022/07/10 20:56:53;;;;;;;4.05;1.90;;;;;14.10;96935.00;;;;8379442;28;20315;-64
2022/07/10 21:00:56;;;;;;;1.30;1.20;;;;;14.30;96938.00;;;;8378685;28;20223;-63
2022/07/10 21:04:59;;;;;;;3.72;1.40;;;;;14.50;96951.00;;;;8368202;28;20231;-64
2022/07/10 21:09:03;;;;;;;1.40;1.30;;;;;14.70;96945.00;;;;8374054;28;20230;-64
2022/07/10 21:13:07;;;;;;;4.53;1.52;;;;;14.80;96948.00;;;;8373596;28;20231;-64
2022/07/10 21:17:10;;;;;;;2.58;1.60;;;;;15.00;96941.00;;;;8371712;28;20713;-64
2022/07/10 21:21:13;;;;;;;2.75;1.52;;;;;15.20;96946.00;;;;8366649;28;20652;-63
2022/07/10 21:25:17;;;;;;;1.25;1.25;;;;;15.30;96944.00;;;;8379408;28;20226;-63
2022/07/10 21:29:21;;;;;;;1.75;1.27;;;;;15.40;96946.00;;;;8367336;28;20877;-63
2022/07/10 21:33:24;;;;;;;1.70;1.60;;;;;15.40;96939.00;;;;8373181;28;20236;-63
2022/07/10 21:37:28;;;;;;;2.47;1.75;;;;;15.40;96951.00;;;;8372818;28;20230;-63
2022/07/10 21:41:31;;;;;;;1.92;1.63;;;;;15.40;96942.00;;;;8365971;28;20236;-63
2022/07/10 21:45:37;;;;;;;1.42;1.30;;;;;15.40;96936.00;;;;8359671;28;20220;-65
2022/07/10 21:49:40;;;;;;;2.03;1.30;;;;;15.50;96937.00;;;;8363663;28;20322;-64
2022/07/10 21:53:43;;;;;;;2.22;1.50;;;;;15.60;96948.00;;;;8369043;28;20227;-64
2022/07/10 21:57:47;;;;;;;3.70;1.25;;;;;15.60;96951.00;;;;8373283;28;20220;-64
2022/07/10 22:01:51;;;;;;;5.28;1.38;;;;;15.70;96945.00;;;;8356708;28;20224;-64
2022/07/10 22:05:55;;;;;;;2.47;1.40;;;;;15.80;96938.00;;;;8370241;28;20634;-63
2022/07/10 22:09:58;;;;;;;1.40;1.30;;;;;15.90;96936.00;;;;8380262;28;20234;-63
2022/07/10 22:14:01;;;;;;;2.00;1.67;;;;;16.00;96938.00;;;;8368776;28;20242;-63
2022/07/10 22:18:06;;;;;;;1.85;1.30;;;;;16.10;96947.00;;;;8379331;28;20319;-64
2022/07/10 22:22:09;;;;;;;1.58;1.17;;;;;16.10;96947.00;;;;8370986;28;20231;-63
2022/07/10 22:26:13;;;;;;;1.30;1.20;;;;;16.20;96944.00;;;;8368087;28;20225;-64
2022/07/10 22:31:16;;;;;;;1.60;1.30;;;;;16.10;96941.00;;;;8372696;28;20653;-64
2022/07/10 22:34:43;;;;;;;3.05;1.38;;;;;16.10;96940.00;;;;8377183;28;20226;-64
2022/07/10 22:38:46;;;;;;;2.15;1.30;;;;;16.20;96957.00;;;;8369007;28;20736;-63
2022/07/10 22:42:49;;;;;;;1.88;1.40;;;;;16.30;96940.00;;;;8382718;28;20216;-63
2022/07/10 22:46:52;;;;;;;3.20;1.30;;;;;16.30;96932.00;;;;8373839;28;20558;-64
2022/07/10 22:50:57;;;;;;;1.23;1.23;;;;;16.40;96934.00;;;;8381697;28;20630;-63
2022/07/10 22:55:01;;;;;;;3.42;1.20;;;;;16.40;96938.00;;;;8371827;28;20235;-64
2022/07/10 22:59:04;;;;;;;1.77;1.23;;;;;16.50;96935.00;;;;8363914;28;20322;-64
2022/07/10 23:03:07;;;;;;;1.60;1.30;;;;;16.50;96927.00;;;;8371768;28;20573;-64
2022/07/10 23:07:12;;;;;;;2.97;1.33;;;;;16.50;96924.00;;;;8360971;28;20239;-65
2022/07/10 23:11:15;;;;;;;5.28;1.42;;;;;16.50;96935.00;;;;8364789;28;20642;-64
2022/07/10 23:15:19;;;;;;;3.22;1.23;;;;;16.40;96924.00;;;;8367909;28;20229;-64
2022/07/10 23:19:22;;;;;;;1.40;1.30;;;;;16.50;96926.00;;;;8365150;28;20220;-64
2022/07/10 23:23:27;;;;;;;3.95;1.95;;;;;16.50;96920.00;;;;8371457;28;20263;-64
2022/07/10 23:27:30;;;;;;;2.30;1.42;;;;;16.60;96916.00;;;;8376648;28;20226;-64
2022/07/10 23:31:33;;;;;;;2.15;1.30;;;;;16.60;96918.00;;;;8380958;28;20335;-64
2022/07/10 23:35:37;;;;;;;3.75;1.40;;;;;16.60;96913.00;;;;8375966;28;20248;-64
2022/07/10 23:39:42;;;;;;;2.88;1.20;;;;;16.70;96914.00;;;;8383906;28;20228;-63
2022/07/10 23:43:45;;;;;;;3.75;1.40;;;;;16.70;96914.00;;;;8377607;28;20228;-63
2022/07/10 23:47:49;;;;;;;4.03;1.42;;;;;16.70;96910.00;;;;8381741;28;20248;-64
2022/07/10 23:51:52;;;;;;;1.83;1.27;;;;;16.80;96908.00;;;;8385184;28;20233;-64
2022/07/10 23:55:56;;;;;;;4.90;1.50;;;;;16.80;96913.00;;;;8381932;28;20226;-64
